Airport View

Enter AWOS ICAO identifier for current METAR.

ex. KFNL

KRRL 250135Z AUTO 15004KT 10SM CLR 21/17 A2986 RMK AO2 T02110168 TSNO

25 May 2020 01:31

Frequency: 119.925

Phone: 715-539-8422

Other Area AWOS: KTKV - KAUW - KCWA - KAIG

TAF KAUW 242337Z 2500/2524 16005KT P6SM SCT250 FM251000 VRB03KT 2SM BR BKN002 FM251200 18005KT P6SM BKN120 FM251700 20008KT P6SM SCT045 PROB30 2519/2523 2SM TSRA OVC025CB